createdAt,value
2023-04-15T00:01:39.751Z,8.11
2023-04-15T00:03:57.912Z,8.11
2023-04-15T00:06:14.261Z,8.12
2023-04-15T00:08:27.033Z,8.14
2023-04-15T00:10:45.056Z,8.17
2023-04-15T00:13:00.709Z,8.15
2023-04-15T00:15:18.824Z,8.15
2023-04-15T00:17:36.926Z,8.15
2023-04-15T00:19:53.983Z,8.17
2023-04-15T00:22:08.069Z,8.17
2023-04-15T00:24:24.523Z,8.18
2023-04-15T00:26:43.142Z,8.18
2023-04-15T00:28:56.223Z,8.20
2023-04-15T00:31:10.909Z,8.18
2023-04-15T00:33:26.479Z,8.18
2023-04-15T00:35:43.078Z,8.20
2023-04-15T00:37:59.621Z,8.18
2023-04-15T00:40:11.708Z,8.17
2023-04-15T00:42:27.285Z,8.20
2023-04-15T00:44:42.872Z,8.20
2023-04-15T00:46:58.487Z,8.21
2023-04-15T00:49:14.063Z,8.21
2023-04-15T00:51:29.772Z,8.18
2023-04-15T00:53:48.606Z,8.20
2023-04-15T00:56:00.838Z,8.20
2023-04-15T00:58:16.399Z,8.21
2023-04-15T01:00:31.998Z,8.21
2023-04-15T01:02:47.676Z,8.20
2023-04-15T01:05:04.061Z,8.21
2023-04-15T01:07:18.729Z,8.20
2023-04-15T01:09:36.804Z,8.22
2023-04-15T01:11:52.407Z,8.20
2023-04-15T01:14:10.446Z,8.18
2023-04-15T01:16:25.048Z,8.18
2023-04-15T01:18:40.629Z,8.20
2023-04-15T01:20:59.601Z,8.18
2023-04-15T01:23:13.325Z,8.15
2023-04-15T01:25:29.760Z,8.18
2023-04-15T01:27:47.041Z,8.17
2023-04-15T01:30:01.614Z,8.18
2023-04-15T01:32:17.177Z,8.18
2023-04-15T01:34:35.466Z,8.18
2023-04-15T01:36:50.853Z,8.18
2023-04-15T01:39:08.944Z,8.18
2023-04-15T01:41:30.401Z,8.18
2023-04-15T01:43:45.126Z,8.17
2023-04-15T01:45:59.708Z,8.14
2023-04-15T01:48:15.282Z,8.14
2023-04-15T01:50:29.259Z,8.12
2023-04-15T01:52:47.337Z,8.12
2023-04-15T01:55:04.601Z,8.11
2023-04-15T01:57:20.171Z,8.12
2023-04-15T01:59:36.678Z,8.14
2023-04-15T02:01:53.835Z,8.12
2023-04-15T02:04:10.378Z,8.12
2023-04-15T02:06:24.993Z,8.11
2023-04-15T02:08:43.629Z,8.10
2023-04-15T02:11:01.662Z,8.10
2023-04-15T02:13:16.732Z,8.10
2023-04-15T02:15:33.200Z,8.11
2023-04-15T02:17:47.984Z,8.11
2023-04-15T02:20:04.401Z,8.11
2023-04-15T02:22:21.584Z,8.11
2023-04-15T02:24:37.149Z,8.12
2023-04-15T02:26:54.598Z,8.11
2023-04-15T02:29:09.286Z,8.11
2023-04-15T02:31:30.893Z,8.10
2023-04-15T02:33:45.475Z,8.11
2023-04-15T02:36:03.567Z,8.11
2023-04-15T02:38:19.173Z,8.12
2023-04-15T02:40:34.739Z,8.11
2023-04-15T02:42:49.856Z,8.11
2023-04-15T02:45:07.960Z,8.12
2023-04-15T02:47:26.006Z,8.14
2023-04-15T02:49:41.597Z,8.11
2023-04-15T02:51:57.181Z,8.12
2023-04-15T02:54:12.786Z,8.14
2023-04-15T02:56:26.909Z,8.14
2023-04-15T02:58:40.867Z,8.15
2023-04-15T03:00:53.514Z,8.14
2023-04-15T03:03:12.706Z,8.12
2023-04-15T03:05:28.078Z,8.15
2023-04-15T03:07:42.798Z,8.15
2023-04-15T03:09:59.227Z,8.15
2023-04-15T03:12:16.420Z,8.15
2023-04-15T03:14:32.025Z,8.17
2023-04-15T03:16:46.649Z,8.15
2023-04-15T03:19:02.340Z,8.15
2023-04-15T03:21:17.779Z,8.15
2023-04-15T03:23:35.893Z,8.14
2023-04-15T03:25:51.498Z,8.15
2023-04-15T03:28:09.580Z,8.15
2023-04-15T03:30:25.121Z,8.15
2023-04-15T03:32:40.781Z,8.14
2023-04-15T03:34:59.682Z,8.15
2023-04-15T03:37:16.900Z,8.15
2023-04-15T03:39:39.367Z,8.11
2023-04-15T03:41:55.555Z,8.14
2023-04-15T03:44:11.129Z,8.14
2023-04-15T03:46:29.290Z,8.17
2023-04-15T03:48:49.831Z,8.15
2023-04-15T03:51:06.295Z,8.17
2023-04-15T03:53:21.011Z,8.15
2023-04-15T03:55:39.076Z,8.17
2023-04-15T03:57:54.697Z,8.17
2023-04-15T04:00:15.219Z,8.17
2023-04-15T04:02:29.053Z,8.18
2023-04-15T04:04:41.572Z,8.18
2023-04-15T04:06:57.152Z,8.20
2023-04-15T04:09:12.743Z,8.20
2023-04-15T04:11:30.863Z,8.20
2023-04-15T04:13:46.468Z,8.20
2023-04-15T04:16:02.156Z,8.21
2023-04-15T04:18:17.582Z,8.22
2023-04-15T04:20:34.044Z,8.21
2023-04-15T04:22:51.269Z,8.25
2023-04-15T04:25:11.038Z,8.26
2023-04-15T04:27:29.666Z,8.26
2023-04-15T04:29:44.366Z,8.28
2023-04-15T04:32:00.858Z,8.29
2023-04-15T04:34:14.542Z,8.29
2023-04-15T04:36:30.142Z,8.29
2023-04-15T04:38:45.721Z,8.29
2023-04-15T04:41:01.290Z,8.29
2023-04-15T04:43:14.355Z,8.30
2023-04-15T04:45:29.966Z,8.33
2023-04-15T04:47:48.166Z,8.36
2023-04-15T04:50:03.511Z,8.36
2023-04-15T04:52:18.186Z,8.35
2023-04-15T04:54:36.321Z,8.36
2023-04-15T04:56:52.752Z,8.39
2023-04-15T04:59:10.008Z,8.42
2023-04-15T05:01:28.107Z,8.42
2023-04-15T05:03:41.690Z,8.47
2023-04-15T05:06:01.640Z,8.45
2023-04-15T05:08:17.805Z,8.47
2023-04-15T05:10:35.371Z,8.48
2023-04-15T05:12:48.981Z,8.50
2023-04-15T05:15:07.068Z,8.51
2023-04-15T05:17:26.089Z,8.54
2023-04-15T05:19:42.791Z,8.57
2023-04-15T05:21:59.847Z,8.57
2023-04-15T05:24:14.970Z,8.60
2023-04-15T05:26:32.518Z,8.62
2023-04-15T05:28:50.627Z,8.62
2023-04-15T05:31:06.115Z,8.63
2023-04-15T05:33:22.838Z,8.63
2023-04-15T05:35:38.466Z,8.66
2023-04-15T05:37:56.564Z,8.66
2023-04-15T05:40:12.122Z,8.71
2023-04-15T05:42:28.285Z,8.73
2023-04-15T05:44:46.322Z,8.76
2023-04-15T05:47:04.766Z,8.78
2023-04-15T05:49:21.338Z,8.84
2023-04-15T05:51:35.052Z,8.88
2023-04-15T05:53:48.654Z,8.88
2023-04-15T05:56:03.278Z,8.90
2023-04-15T05:58:21.925Z,8.94
2023-04-15T06:00:34.864Z,8.94
2023-04-15T06:02:53.071Z,8.97
2023-04-15T06:05:08.577Z,9.06
2023-04-15T06:07:23.139Z,9.09
2023-04-15T06:09:36.764Z,9.10
2023-04-15T06:11:52.316Z,9.15
2023-04-15T06:14:05.412Z,9.15
2023-04-15T06:16:19.484Z,9.23
2023-04-15T06:18:32.117Z,9.24
2023-04-15T06:20:47.650Z,9.25
2023-04-15T06:23:05.822Z,9.35
2023-04-15T06:25:21.409Z,9.50
2023-04-15T06:27:34.982Z,9.64
2023-04-15T06:29:53.082Z,9.73
2023-04-15T06:32:08.644Z,9.81
2023-04-15T06:34:24.350Z,9.88
2023-04-15T06:36:39.809Z,9.91
2023-04-15T06:38:55.402Z,9.96
2023-04-15T06:41:13.651Z,10.03
2023-04-15T06:43:27.066Z,10.00
2023-04-15T06:45:43.562Z,10.15
2023-04-15T06:47:59.169Z,10.10
2023-04-15T06:50:16.342Z,10.19
2023-04-15T06:52:35.341Z,10.25
2023-04-15T06:54:49.987Z,10.25
2023-04-15T06:57:08.080Z,10.24
2023-04-15T06:59:23.688Z,10.34
2023-04-15T07:01:39.264Z,10.43
2023-04-15T07:03:54.906Z,10.44
2023-04-15T07:06:10.453Z,10.66
2023-04-15T07:08:24.020Z,10.77
2023-04-15T07:10:39.609Z,10.89
2023-04-15T07:12:59.096Z,10.99
2023-04-15T07:15:15.862Z,11.03
2023-04-15T07:17:31.401Z,10.84
2023-04-15T07:19:45.848Z,10.94
2023-04-15T07:22:00.555Z,10.94
2023-04-15T07:24:15.028Z,11.03
2023-04-15T07:26:30.626Z,10.98
2023-04-15T07:28:45.310Z,11.06
2023-04-15T07:31:00.945Z,11.01
2023-04-15T07:33:16.550Z,11.09
2023-04-15T07:35:32.060Z,11.09
2023-04-15T07:37:47.658Z,11.11
2023-04-15T07:40:03.212Z,10.98
2023-04-15T07:42:19.399Z,11.06
2023-04-15T07:44:34.406Z,11.31
2023-04-15T07:46:53.355Z,11.49
2023-04-15T07:49:10.577Z,11.31
2023-04-15T07:51:28.639Z,11.34
2023-04-15T07:53:46.716Z,11.19
2023-04-15T07:56:02.362Z,11.10
2023-04-15T07:58:15.883Z,10.95
2023-04-15T08:00:30.518Z,11.03
2023-04-15T08:02:49.172Z,10.95
2023-04-15T08:05:09.705Z,10.94
2023-04-15T08:07:27.721Z,10.89
2023-04-15T08:09:44.367Z,10.84
2023-04-15T08:12:02.431Z,10.91
2023-04-15T08:14:20.331Z,10.98
2023-04-15T08:16:38.584Z,10.89
2023-04-15T08:18:54.262Z,10.94
2023-04-15T08:21:23.157Z,10.99
2023-04-15T08:23:41.216Z,11.13
2023-04-15T08:25:59.308Z,11.07
2023-04-15T08:28:15.863Z,10.99
2023-04-15T08:30:33.857Z,10.96
2023-04-15T08:32:52.722Z,11.07
2023-04-15T08:35:07.314Z,11.09
2023-04-15T08:37:25.740Z,11.03
2023-04-15T08:39:43.932Z,11.14
2023-04-15T08:42:04.061Z,11.14
2023-04-15T08:44:25.221Z,11.02
2023-04-15T08:46:39.618Z,11.03
2023-04-15T08:48:57.664Z,11.10
2023-04-15T08:51:15.410Z,11.06
2023-04-15T08:53:34.003Z,11.02
2023-04-15T08:55:49.478Z,10.99
2023-04-15T08:58:07.651Z,10.89
2023-04-15T09:00:25.663Z,10.98
2023-04-15T09:02:41.070Z,10.99
2023-04-15T09:04:55.876Z,10.91
2023-04-15T09:07:14.364Z,10.92
2023-04-15T09:09:32.050Z,10.92
2023-04-15T09:11:50.125Z,10.84
2023-04-15T09:14:07.851Z,10.94
2023-04-15T09:16:26.105Z,10.98
2023-04-15T09:18:42.369Z,10.99
2023-04-15T09:20:59.578Z,11.07
2023-04-15T09:23:19.516Z,11.10
2023-04-15T09:25:39.591Z,11.09
2023-04-15T09:27:52.865Z,11.10
2023-04-15T09:30:08.892Z,11.19
2023-04-15T09:32:23.110Z,11.20
2023-04-15T09:34:42.035Z,11.16
2023-04-15T09:36:56.746Z,11.28
2023-04-15T09:39:15.679Z,11.47
2023-04-15T09:41:30.441Z,11.54
2023-04-15T09:43:48.811Z,11.64
2023-04-15T09:46:07.583Z,11.52
2023-04-15T09:48:24.023Z,11.49
2023-04-15T09:50:41.266Z,11.44
2023-04-15T09:52:57.678Z,11.50
2023-04-15T09:55:14.964Z,11.35
2023-04-15T09:57:33.033Z,11.35
2023-04-15T09:59:51.974Z,11.29
2023-04-15T10:02:07.889Z,11.32
2023-04-15T10:04:25.975Z,11.35
2023-04-15T10:06:41.438Z,11.38
2023-04-15T10:09:00.413Z,11.36
2023-04-15T10:11:18.605Z,11.44
2023-04-15T10:13:36.070Z,11.44
2023-04-15T10:15:54.185Z,11.29
2023-04-15T10:18:12.190Z,11.24
2023-04-15T10:20:31.201Z,11.27
2023-04-15T10:22:49.595Z,11.29
2023-04-15T10:25:08.003Z,11.19
2023-04-15T10:27:25.512Z,11.25
2023-04-15T10:29:44.498Z,11.28
2023-04-15T10:32:01.689Z,11.24
2023-04-15T10:34:18.286Z,11.24
2023-04-15T10:36:37.854Z,11.25
2023-04-15T10:38:54.437Z,11.28
2023-04-15T10:41:16.634Z,11.28
2023-04-15T10:43:30.679Z,11.39
2023-04-15T10:45:49.599Z,11.38
2023-04-15T10:48:05.330Z,11.39
2023-04-15T10:50:23.361Z,11.43
2023-04-15T10:52:41.432Z,11.54
2023-04-15T10:55:02.149Z,11.39
2023-04-15T10:57:17.948Z,11.39
2023-04-15T10:59:40.180Z,11.35
2023-04-15T11:32:06.042Z,11.36
2023-04-15T11:46:15.605Z,11.50
2023-04-15T11:52:37.649Z,11.38
2023-04-15T12:52:52.240Z,11.43
2023-04-15T12:57:50.745Z,11.53
2023-04-15T13:29:50.095Z,11.57
2023-04-15T13:39:06.785Z,11.67
2023-04-15T13:40:57.446Z,11.67
2023-04-15T13:43:11.487Z,11.59
2023-04-15T13:45:29.907Z,11.54
2023-04-15T13:47:50.649Z,11.56
2023-04-15T13:50:05.801Z,11.53
2023-04-15T13:52:24.127Z,11.52
2023-04-15T13:54:41.909Z,11.31
2023-04-15T13:56:56.516Z,11.32
2023-04-15T13:59:14.605Z,11.32
2023-04-15T14:01:33.691Z,11.36
2023-04-15T14:03:50.864Z,11.43
2023-04-15T14:06:08.909Z,11.28
2023-04-15T14:08:26.983Z,11.17
2023-04-15T14:10:45.903Z,11.20
2023-04-15T14:13:01.998Z,11.11
2023-04-15T14:15:16.220Z,11.06
2023-04-15T14:17:31.858Z,11.07
2023-04-15T14:19:48.288Z,11.16
2023-04-15T14:22:05.505Z,11.09
2023-04-15T14:24:23.635Z,11.11
2023-04-15T14:26:38.201Z,11.11
2023-04-15T14:28:56.383Z,11.09
2023-04-15T14:31:15.322Z,11.13
2023-04-15T14:33:32.495Z,11.13
2023-04-15T14:35:50.598Z,11.09
2023-04-15T14:38:06.246Z,11.03
2023-04-15T14:40:24.266Z,11.01
2023-04-15T14:42:40.945Z,11.03
2023-04-15T14:45:09.844Z,10.95
2023-04-15T14:47:28.282Z,10.96
2023-04-15T14:49:46.077Z,10.94
2023-04-15T14:52:05.253Z,10.94
2023-04-15T14:54:23.576Z,10.91
2023-04-15T14:56:41.488Z,10.92
2023-04-15T14:59:03.164Z,10.96
2023-04-15T15:01:17.762Z,10.91
2023-04-15T15:03:33.770Z,10.94
2023-04-15T15:05:49.457Z,10.91
2023-04-15T15:08:06.764Z,10.91
2023-04-15T15:10:35.829Z,10.88
2023-04-15T15:12:44.682Z,10.80
2023-04-15T15:15:09.266Z,10.80
2023-04-15T15:16:03.621Z,10.78
2023-04-15T15:37:46.344Z,10.86
2023-04-15T15:40:03.556Z,10.91
2023-04-15T15:42:19.159Z,10.88
2023-04-15T15:44:37.734Z,10.92
2023-04-15T15:46:55.411Z,10.95
2023-04-15T15:49:11.258Z,10.91
2023-04-15T15:51:29.388Z,10.88
2023-04-15T15:53:43.771Z,10.88
2023-04-15T15:56:02.778Z,10.89
2023-04-15T15:58:18.428Z,10.91
2023-04-15T16:00:36.376Z,10.86
2023-04-15T16:03:05.117Z,10.86
2023-04-15T16:03:55.462Z,10.80
2023-04-15T16:06:13.080Z,10.84
2023-04-15T16:08:30.560Z,10.86
2023-04-15T16:10:49.056Z,10.80
2023-04-15T16:13:05.211Z,10.77
2023-04-15T16:15:26.178Z,10.80
2023-04-15T16:17:41.084Z,10.76
2023-04-15T16:19:58.893Z,10.73
2023-04-15T16:22:15.950Z,10.68
2023-04-15T16:24:31.140Z,10.68
2023-04-15T16:26:48.746Z,10.66
2023-04-15T16:29:05.557Z,10.66
2023-04-15T16:31:23.509Z,10.66
2023-04-15T16:33:39.989Z,10.65
2023-04-15T16:36:02.552Z,10.65
2023-04-15T16:38:17.172Z,10.65
2023-04-15T16:40:31.761Z,10.62
2023-04-15T16:42:49.839Z,10.60
2023-04-15T16:45:07.917Z,10.56
2023-04-15T16:47:24.464Z,10.55
2023-04-15T16:49:41.616Z,10.53
2023-04-15T16:52:02.236Z,10.52
2023-04-15T16:54:16.833Z,10.46
2023-04-15T16:56:34.865Z,10.46
2023-04-15T16:58:55.446Z,10.44
2023-04-15T17:01:13.563Z,10.43
2023-04-15T17:03:31.886Z,10.43
2023-04-15T17:05:47.710Z,10.39
2023-04-15T17:08:05.464Z,10.39
2023-04-15T17:10:23.415Z,10.39
2023-04-15T17:12:43.995Z,10.40
2023-04-15T17:15:02.127Z,10.36
2023-04-15T17:17:20.317Z,10.37
2023-04-15T17:19:35.807Z,10.36
2023-04-15T17:21:56.484Z,10.37
2023-04-15T17:24:10.972Z,10.36
2023-04-15T17:26:25.607Z,10.36
2023-04-15T17:28:43.636Z,10.34
2023-04-15T17:30:59.269Z,10.36
2023-04-15T17:33:55.780Z,10.36
2023-04-15T17:34:18.373Z,10.32
2023-04-15T17:36:35.402Z,10.34
2023-04-15T17:38:51.004Z,10.33
2023-04-15T17:41:05.555Z,10.33
2023-04-15T17:43:20.121Z,10.32
2023-04-15T17:45:38.185Z,10.33
2023-04-15T18:21:53.649Z,10.28
2023-04-15T18:46:27.262Z,10.22
2023-04-15T19:05:11.890Z,10.19
2023-04-15T19:42:00.880Z,10.17
2023-04-15T19:43:50.966Z,10.17
2023-04-15T19:46:30.859Z,10.14
2023-04-15T19:49:59.293Z,10.15
2023-04-15T20:06:45.474Z,10.12
2023-04-15T20:08:31.855Z,10.14
2023-04-15T20:10:43.627Z,10.12
2023-04-15T20:12:58.654Z,10.14
2023-04-15T20:15:16.721Z,10.15
2023-04-15T20:17:35.746Z,10.15
2023-04-15T20:19:47.756Z,10.14
2023-04-15T20:21:58.964Z,10.14
2023-04-15T20:24:11.110Z,10.12
2023-04-15T20:26:24.002Z,10.12
2023-04-15T20:28:36.243Z,10.12
2023-04-15T20:30:52.661Z,10.10
2023-04-15T20:33:04.848Z,10.10
2023-04-15T20:35:19.337Z,10.10
2023-04-15T20:37:31.518Z,10.09
2023-04-15T20:39:45.140Z,10.09
2023-04-15T20:41:58.700Z,10.07
2023-04-15T20:44:15.163Z,10.07
2023-04-15T20:46:28.776Z,10.09
2023-04-15T20:48:39.953Z,10.07
2023-04-15T20:50:53.564Z,10.06
2023-04-15T20:53:05.622Z,10.04
2023-04-15T20:55:21.216Z,10.06
2023-04-15T20:57:36.666Z,10.04
2023-04-15T20:59:47.869Z,10.07
2023-04-15T21:02:01.613Z,10.04
2023-04-15T21:04:16.994Z,10.04
2023-04-15T21:06:30.587Z,10.06
2023-04-15T21:08:43.322Z,10.04
2023-04-15T21:10:58.945Z,10.03
2023-04-15T21:13:11.052Z,10.04
2023-04-15T21:15:29.113Z,10.03
2023-04-15T21:17:41.223Z,10.03
2023-04-15T21:19:55.667Z,10.04
2023-04-15T21:22:06.866Z,10.03
2023-04-15T21:24:22.499Z,10.01
2023-04-15T21:26:37.054Z,10.01
2023-04-15T21:28:54.230Z,10.01
2023-04-15T21:31:07.246Z,10.01
2023-04-15T21:33:18.345Z,10.03
2023-04-15T21:35:31.982Z,10.03
2023-04-15T21:37:45.564Z,10.03
2023-04-15T21:40:00.147Z,10.01
2023-04-15T21:42:14.714Z,10.01
2023-04-15T21:44:30.288Z,10.01
2023-04-15T21:46:46.360Z,10.01
2023-04-15T21:49:01.453Z,10.01
2023-04-15T21:51:13.533Z,10.00
2023-04-15T21:53:27.097Z,10.00
2023-04-15T21:55:40.708Z,10.00
2023-04-15T21:57:56.321Z,10.00
2023-04-15T22:00:09.924Z,10.00
2023-04-15T22:02:23.058Z,9.99
2023-04-15T22:04:35.504Z,10.00
2023-04-15T22:06:48.657Z,9.97
2023-04-15T22:09:04.303Z,9.99
2023-04-15T22:11:18.981Z,9.99
2023-04-15T22:13:35.486Z,9.99
2023-04-15T22:15:48.164Z,10.00
2023-04-15T22:18:03.807Z,9.97
2023-04-15T22:20:17.365Z,9.97
2023-04-15T22:22:43.562Z,9.97
2023-04-15T22:23:33.910Z,9.96
2023-04-15T22:25:49.447Z,9.97
2023-04-15T22:28:04.098Z,9.97
2023-04-15T22:30:20.568Z,9.97
2023-04-15T22:32:35.322Z,9.97
2023-04-15T22:34:50.903Z,9.96
2023-04-15T22:37:05.482Z,9.97
2023-04-15T22:39:21.948Z,9.97
2023-04-15T22:41:34.676Z,9.94
2023-04-15T22:43:50.235Z,9.96
2023-04-15T22:46:05.865Z,9.97
2023-04-15T22:48:21.428Z,9.94
2023-04-15T22:50:36.970Z,9.93
2023-04-15T22:52:51.124Z,9.94
2023-04-15T22:55:03.654Z,9.93
2023-04-15T22:57:19.238Z,9.91
2023-04-15T22:59:35.386Z,9.91
2023-04-15T23:01:49.393Z,9.93
2023-04-15T23:04:05.981Z,9.89
2023-04-15T23:06:15.624Z,9.89
2023-04-15T23:08:31.191Z,9.91
2023-04-15T23:10:44.808Z,9.91
2023-04-15T23:13:00.364Z,9.89
2023-04-15T23:15:15.976Z,9.86
2023-04-15T23:17:31.569Z,9.85
2023-04-15T23:19:45.144Z,9.83
2023-04-15T23:22:00.761Z,9.82
2023-04-15T23:24:16.373Z,9.82
2023-04-15T23:26:29.936Z,9.79
2023-04-15T23:28:43.018Z,9.78
2023-04-15T23:30:58.525Z,9.75
2023-04-15T23:33:10.597Z,9.76
2023-04-15T23:35:25.325Z,9.75
2023-04-15T23:37:38.410Z,9.75
2023-04-15T23:39:52.011Z,9.71
2023-04-15T23:42:05.585Z,9.70
2023-04-15T23:44:17.688Z,9.67
2023-04-15T23:46:30.780Z,9.67
2023-04-15T23:48:42.826Z,9.61
2023-04-15T23:50:56.435Z,9.63
2023-04-15T23:53:10.035Z,9.63
2023-04-15T23:55:23.661Z,9.61
2023-04-15T23:57:38.157Z,9.58
2023-04-15T23:59:53.365Z,9.58
